Fairfield, North Carolina
Current Conditions -  °F | °C
As of 4:56 PM on Sunday 23 Nov 2014 (Local Time) from K2DP Reporting Station
Light Rain Light Rain  
Wind Chill: 62°   Ceiling: 7000
Heat Index: 62°   Visibility: 10mi
Dew Point: 59°   Wind: 15mph
Humidity: 90%   Direction: 150°SSE
Pressure: 30.09"   Gusts: 23mph
Location:  35.54°N, 76.22°W
Report Text: K2DP 232156Z AUTO 15013G20KT 10SM -RA SCT037 BKN070 BKN120 17/15 A3009 RMK AO2 SLPNO P0003 T01680152
Loading
Personal Weather Stations






























Interactive Weather Map New forecast layout! Learn more

10-Day Weather Forecast

Advertisements
Track Severe Weather on mobile